createdAt,value
2018-08-25T00:01:30.107Z,5.80
2018-08-25T00:03:58.587Z,5.93
2018-08-25T00:06:27.052Z,5.73
2018-08-25T00:08:55.538Z,6.53
2018-08-25T00:11:24.022Z,6.33
2018-08-25T00:13:52.487Z,5.60
2018-08-25T00:16:20.950Z,6.60
2018-08-25T00:18:49.416Z,6.20
2018-08-25T00:21:17.871Z,5.60
2018-08-25T00:23:46.338Z,5.33
2018-08-25T00:26:14.812Z,5.17
2018-08-25T00:28:43.282Z,5.37
2018-08-25T00:31:17.058Z,5.93
2018-08-25T00:33:45.520Z,5.60
2018-08-25T00:36:13.970Z,5.60
2018-08-25T00:38:42.430Z,6.30
2018-08-25T00:41:10.910Z,5.77
2018-08-25T00:43:39.362Z,4.23
2018-08-25T00:46:07.848Z,5.03
2018-08-25T00:48:36.350Z,4.53
2018-08-25T00:51:05.059Z,4.77
2018-08-25T00:53:33.876Z,5.63
2018-08-25T00:56:02.401Z,4.80
2018-08-25T00:58:30.890Z,4.43
2018-08-25T01:00:59.398Z,5.13
2018-08-25T01:03:27.946Z,4.90
2018-08-25T01:05:56.403Z,4.87
2018-08-25T01:08:24.920Z,5.00
2018-08-25T01:10:53.394Z,4.90
2018-08-25T01:13:21.895Z,5.50
2018-08-25T01:15:50.347Z,5.97
2018-08-25T01:18:18.810Z,5.67
2018-08-25T01:20:48.398Z,6.00
2018-08-25T01:23:16.946Z,5.50
2018-08-25T01:25:45.576Z,6.23
2018-08-25T01:28:14.032Z,5.27
2018-08-25T01:30:42.494Z,4.83
2018-08-25T01:33:11.034Z,5.33
2018-08-25T01:35:39.495Z,6.17
2018-08-25T01:38:08.365Z,4.80
2018-08-25T01:40:36.827Z,4.97
2018-08-25T01:43:05.634Z,4.87
2018-08-25T01:45:34.111Z,4.50
2018-08-25T01:48:02.562Z,4.47
2018-08-25T01:50:31.173Z,4.40
2018-08-25T01:52:59.618Z,4.47
2018-08-25T01:55:28.138Z,4.30
2018-08-25T01:57:56.643Z,4.87
2018-08-25T02:00:25.102Z,3.50
2018-08-25T02:02:53.598Z,4.20
2018-08-25T02:05:22.118Z,4.40
2018-08-25T02:07:50.603Z,4.70
2018-08-25T02:10:19.059Z,4.30
2018-08-25T02:12:47.566Z,5.13
2018-08-25T02:15:16.023Z,4.97
2018-08-25T02:17:44.477Z,3.80
2018-08-25T02:20:12.947Z,3.80
2018-08-25T02:22:41.402Z,3.73
2018-08-25T02:25:09.859Z,4.27
2018-08-25T02:27:38.319Z,4.30
2018-08-25T02:30:06.823Z,4.13
2018-08-25T02:32:35.280Z,4.27
2018-08-25T02:35:03.819Z,4.00
2018-08-25T02:37:32.346Z,4.37
2018-08-25T02:40:00.815Z,4.17
2018-08-25T02:42:29.270Z,4.53
2018-08-25T02:44:57.718Z,4.20
2018-08-25T02:47:26.198Z,3.67
2018-08-25T02:49:54.667Z,4.20
2018-08-25T02:52:23.276Z,3.43
2018-08-25T02:54:51.757Z,3.50
2018-08-25T02:57:20.247Z,3.60
2018-08-25T02:59:48.714Z,3.47
2018-08-25T03:02:17.163Z,4.23
2018-08-25T03:04:45.614Z,4.03
2018-08-25T03:07:14.079Z,3.10
2018-08-25T03:09:42.539Z,4.17
2018-08-25T03:12:10.995Z,4.20
2018-08-25T03:14:39.443Z,3.93
2018-08-25T03:17:07.907Z,3.87
2018-08-25T03:19:36.747Z,3.83
2018-08-25T03:22:05.227Z,4.10
2018-08-25T03:24:33.748Z,4.07
2018-08-25T03:27:02.261Z,4.23
2018-08-25T03:29:30.720Z,4.50
2018-08-25T03:32:04.710Z,5.00
2018-08-25T03:34:33.259Z,4.77
2018-08-25T03:37:01.711Z,4.00
2018-08-25T03:39:30.170Z,4.60
2018-08-25T03:41:58.615Z,4.40
2018-08-25T03:44:27.082Z,4.80
2018-08-25T03:46:55.626Z,4.57
2018-08-25T03:49:24.090Z,4.83
2018-08-25T03:51:52.548Z,5.87
2018-08-25T03:54:21.046Z,6.70
2018-08-25T03:56:49.541Z,6.23
2018-08-25T03:59:17.990Z,5.50
2018-08-25T04:01:46.479Z,5.60
2018-08-25T04:04:15.069Z,5.80
2018-08-25T04:06:43.550Z,5.63
2018-08-25T04:09:13.672Z,6.90
2018-08-25T04:11:42.131Z,6.23
2018-08-25T04:14:11.858Z,6.43
2018-08-25T04:16:40.350Z,6.10
2018-08-25T04:19:16.404Z,6.40
2018-08-25T04:21:44.859Z,7.07
2018-08-25T04:24:13.387Z,7.30
2018-08-25T04:26:41.842Z,6.77
2018-08-25T04:29:10.334Z,6.13
2018-08-25T04:31:38.777Z,7.67
2018-08-25T04:34:07.253Z,7.30
2018-08-25T04:36:35.980Z,6.90
2018-08-25T04:39:06.822Z,7.00
2018-08-25T04:41:35.335Z,6.67
2018-08-25T04:44:03.895Z,6.70
2018-08-25T04:46:32.387Z,6.17
2018-08-25T04:49:00.850Z,6.57
2018-08-25T04:51:29.379Z,5.90
2018-08-25T04:53:57.899Z,7.00
2018-08-25T04:56:26.379Z,6.63
2018-08-25T04:58:54.902Z,7.23
2018-08-25T05:01:23.646Z,6.43
2018-08-25T05:03:52.099Z,6.70
2018-08-25T05:06:20.558Z,6.50
2018-08-25T05:08:49.017Z,6.73
2018-08-25T05:11:17.478Z,6.57
2018-08-25T05:13:45.943Z,7.73
2018-08-25T05:16:14.412Z,7.47
2018-08-25T05:18:42.879Z,6.80
2018-08-25T05:21:11.330Z,6.60
2018-08-25T05:23:39.787Z,6.70
2018-08-25T05:26:08.246Z,7.13
2018-08-25T05:28:36.702Z,7.10
2018-08-25T05:31:05.521Z,6.30
2018-08-25T05:33:33.997Z,6.90
2018-08-25T05:36:02.475Z,6.83
2018-08-25T05:38:31.018Z,6.87
2018-08-25T05:40:59.473Z,6.00
2018-08-25T05:43:27.938Z,6.70
2018-08-25T05:45:56.411Z,6.67
2018-08-25T05:48:24.858Z,6.90
2018-08-25T05:50:53.323Z,6.80
2018-08-25T05:53:21.774Z,6.20
2018-08-25T05:55:50.231Z,6.93
2018-08-25T05:58:18.675Z,5.60
2018-08-25T06:00:47.170Z,6.90
2018-08-25T06:03:15.639Z,7.30
2018-08-25T06:05:44.093Z,5.87
2018-08-25T06:08:12.562Z,6.97
2018-08-25T06:10:41.019Z,7.10
2018-08-25T06:13:09.502Z,6.80
2018-08-25T06:15:37.954Z,7.27
2018-08-25T06:18:06.415Z,5.90
2018-08-25T06:20:34.864Z,7.57
2018-08-25T06:23:03.355Z,6.13
2018-08-25T06:25:31.911Z,5.97
2018-08-25T06:28:00.354Z,7.57
2018-08-25T06:30:28.819Z,7.23
2018-08-25T06:32:57.294Z,7.17
2018-08-25T06:35:25.751Z,6.70
2018-08-25T06:37:54.216Z,6.50
2018-08-25T06:40:22.700Z,6.97
2018-08-25T06:42:51.157Z,6.63
2018-08-25T06:45:19.630Z,7.33
2018-08-25T06:47:48.110Z,7.47
2018-08-25T06:50:16.614Z,7.80
2018-08-25T06:52:45.118Z,7.67
2018-08-25T06:55:13.731Z,7.63
2018-08-25T06:57:42.202Z,7.40
2018-08-25T07:00:10.847Z,6.60
2018-08-25T07:02:39.302Z,7.07
2018-08-25T07:05:07.951Z,8.03
2018-08-25T07:07:36.818Z,7.57
2018-08-25T07:10:06.363Z,7.73
2018-08-25T07:12:34.843Z,7.20
2018-08-25T07:15:04.043Z,7.50
2018-08-25T07:17:32.563Z,6.90
2018-08-25T07:20:01.022Z,7.33
2018-08-25T07:22:29.491Z,7.23
2018-08-25T07:24:58.042Z,7.60
2018-08-25T07:27:26.507Z,6.97
2018-08-25T07:29:54.988Z,7.60
2018-08-25T07:32:23.455Z,7.00
2018-08-25T07:34:51.942Z,7.77
2018-08-25T07:37:20.415Z,7.00
2018-08-25T07:39:48.884Z,7.60
2018-08-25T07:42:17.351Z,6.93
2018-08-25T07:44:45.823Z,7.90
2018-08-25T07:47:14.291Z,7.80
2018-08-25T07:49:42.855Z,7.50
2018-08-25T07:52:11.283Z,6.70
2018-08-25T07:54:39.742Z,7.43
2018-08-25T07:57:08.223Z,7.40
2018-08-25T07:59:36.699Z,7.37
2018-08-25T08:02:05.235Z,7.33
2018-08-25T08:04:33.709Z,7.80
2018-08-25T08:07:02.200Z,7.23
2018-08-25T08:09:30.704Z,6.70
2018-08-25T08:11:59.274Z,8.10
2018-08-25T08:14:27.650Z,7.50
2018-08-25T08:16:56.158Z,7.33
2018-08-25T08:19:24.638Z,7.90
2018-08-25T08:21:53.125Z,7.40
2018-08-25T08:24:21.610Z,8.20
2018-08-25T08:26:50.111Z,7.83
2018-08-25T08:29:18.586Z,7.80
2018-08-25T08:31:47.090Z,40.53
2018-08-25T08:34:15.567Z,7.97
2018-08-25T08:36:44.082Z,7.60
2018-08-25T08:39:12.607Z,9.13
2018-08-25T08:41:41.079Z,8.80
2018-08-25T08:44:09.559Z,8.80
2018-08-25T08:46:38.089Z,8.70
2018-08-25T08:49:08.203Z,7.70
2018-08-25T08:51:37.505Z,6.90
2018-08-25T08:54:05.996Z,7.00
2018-08-25T08:56:34.483Z,7.80
2018-08-25T08:59:02.976Z,7.70
2018-08-25T09:01:32.130Z,8.50
2018-08-25T09:04:00.611Z,7.90
2018-08-25T09:06:29.075Z,7.77
2018-08-25T09:08:57.539Z,7.10
2018-08-25T09:11:26.089Z,7.57
2018-08-25T09:13:54.539Z,7.03
2018-08-25T09:16:23.010Z,6.87
2018-08-25T09:18:51.539Z,7.83
2018-08-25T09:21:20.198Z,7.30
2018-08-25T09:23:48.678Z,7.40
2018-08-25T09:26:17.167Z,7.40
2018-08-25T09:28:45.621Z,8.00
2018-08-25T09:31:14.083Z,7.40
2018-08-25T09:33:42.559Z,7.67
2018-08-25T09:36:11.125Z,7.20
2018-08-25T09:38:39.538Z,7.63
2018-08-25T09:41:08.603Z,8.40
2018-08-25T09:43:37.145Z,7.43
2018-08-25T09:46:05.732Z,8.50
2018-08-25T09:48:34.234Z,8.60
2018-08-25T09:51:02.931Z,7.37
2018-08-25T09:53:31.571Z,7.67
2018-08-25T09:55:59.980Z,7.90
2018-08-25T09:58:28.480Z,7.50
2018-08-25T10:01:02.295Z,8.53
2018-08-25T10:03:30.786Z,7.90
2018-08-25T10:05:59.270Z,7.90
2018-08-25T10:08:27.764Z,8.00
2018-08-25T10:10:56.377Z,7.60
2018-08-25T10:13:24.765Z,8.97
2018-08-25T10:15:53.239Z,8.30
2018-08-25T10:18:21.719Z,8.10
2018-08-25T10:20:50.200Z,8.40
2018-08-25T10:23:18.783Z,8.67
2018-08-25T10:25:47.219Z,8.50
2018-08-25T10:28:15.691Z,8.80
2018-08-25T10:30:44.167Z,7.77
2018-08-25T10:33:12.636Z,8.50
2018-08-25T10:35:41.154Z,8.47
2018-08-25T10:38:09.632Z,8.30
2018-08-25T10:40:38.202Z,8.50
2018-08-25T10:43:06.731Z,7.70
2018-08-25T10:45:35.218Z,7.87
2018-08-25T10:48:03.707Z,8.40
2018-08-25T10:50:32.272Z,7.43
2018-08-25T10:53:00.757Z,7.60
2018-08-25T10:55:29.234Z,7.80
2018-08-25T10:57:57.778Z,8.60
2018-08-25T11:00:26.361Z,8.43
2018-08-25T11:02:54.810Z,8.37
2018-08-25T11:05:23.386Z,8.27
2018-08-25T11:07:51.877Z,8.17
2018-08-25T11:10:20.359Z,7.20
2018-08-25T11:12:48.843Z,7.17
2018-08-25T11:15:17.359Z,7.50
2018-08-25T11:17:45.823Z,5.97
2018-08-25T11:20:14.315Z,5.67
2018-08-25T11:22:42.786Z,6.53
2018-08-25T11:25:11.381Z,6.00
2018-08-25T11:27:39.847Z,5.53
2018-08-25T11:30:08.514Z,6.40
2018-08-25T11:32:37.016Z,5.87
2018-08-25T11:35:06.737Z,6.57
2018-08-25T11:37:35.331Z,8.20
2018-08-25T11:40:04.110Z,11.57
2018-08-25T11:42:32.635Z,9.07
2018-08-25T11:45:01.085Z,7.20
2018-08-25T11:47:29.551Z,5.80
2018-08-25T11:49:58.012Z,7.97
2018-08-25T11:52:26.482Z,6.40
2018-08-25T11:54:54.948Z,6.37
2018-08-25T11:57:23.423Z,5.90
2018-08-25T11:59:51.895Z,7.20
2018-08-25T12:02:20.413Z,6.67
2018-08-25T12:04:48.990Z,7.40
2018-08-25T12:07:17.539Z,7.07
2018-08-25T12:09:46.054Z,6.53
2018-08-25T12:12:14.735Z,5.70
2018-08-25T12:14:43.323Z,6.10
2018-08-25T12:17:11.799Z,6.80
2018-08-25T12:19:40.456Z,6.10
2018-08-25T12:22:08.994Z,6.20
2018-08-25T12:24:37.459Z,5.87
2018-08-25T12:27:06.268Z,6.60
2018-08-25T12:29:34.763Z,6.60
2018-08-25T12:32:03.263Z,6.57
2018-08-25T12:34:31.778Z,6.90
2018-08-25T12:37:00.237Z,5.67
2018-08-25T12:39:28.707Z,7.20
2018-08-25T12:41:57.185Z,6.40
2018-08-25T12:44:25.638Z,6.27
2018-08-25T12:46:54.091Z,7.00
2018-08-25T12:49:22.565Z,7.00
2018-08-25T12:51:51.032Z,8.07
2018-08-25T12:54:19.489Z,6.53
2018-08-25T12:56:47.947Z,6.30
2018-08-25T12:59:16.486Z,8.40
2018-08-25T13:01:44.986Z,6.40
2018-08-25T13:04:13.378Z,8.50
2018-08-25T13:06:41.844Z,6.63
2018-08-25T13:09:11.679Z,7.00
2018-08-25T13:11:40.393Z,7.53
2018-08-25T13:14:09.067Z,6.60
2018-08-25T13:16:37.666Z,6.80
2018-08-25T13:19:07.146Z,6.67
2018-08-25T13:21:35.711Z,7.67
2018-08-25T13:24:04.233Z,6.73
2018-08-25T13:26:32.707Z,6.30
2018-08-25T13:29:01.170Z,6.57
2018-08-25T13:31:29.636Z,6.60
2018-08-25T13:33:58.160Z,6.50
2018-08-25T13:36:26.642Z,6.30
2018-08-25T13:38:55.163Z,6.23
2018-08-25T13:41:23.635Z,6.43
2018-08-25T13:43:52.106Z,6.60
2018-08-25T13:46:20.584Z,6.30
2018-08-25T13:48:49.070Z,5.80
2018-08-25T13:51:17.538Z,8.00
2018-08-25T13:53:45.996Z,6.10
2018-08-25T13:56:14.482Z,6.10
2018-08-25T13:58:43.061Z,6.73
2018-08-25T14:01:11.635Z,6.00
2018-08-25T14:03:40.102Z,6.40
2018-08-25T14:06:09.335Z,5.60
2018-08-25T14:08:37.807Z,6.07
2018-08-25T14:11:06.328Z,6.37
2018-08-25T14:13:34.807Z,6.17
2018-08-25T14:16:03.325Z,5.33
2018-08-25T14:18:31.747Z,5.57
2018-08-25T14:21:00.210Z,5.77
2018-08-25T14:23:28.690Z,4.70
2018-08-25T14:25:57.162Z,5.67
2018-08-25T14:28:25.634Z,6.80
2018-08-25T14:30:54.137Z,5.67
2018-08-25T14:33:22.649Z,5.17
2018-08-25T14:35:51.114Z,5.73
2018-08-25T14:38:19.578Z,5.47
2018-08-25T14:40:48.034Z,5.10
2018-08-25T14:43:16.495Z,5.70
2018-08-25T14:45:44.947Z,5.20
2018-08-25T14:48:13.798Z,5.03
2018-08-25T14:50:42.668Z,5.23
2018-08-25T14:53:12.380Z,5.17
2018-08-25T14:55:41.355Z,5.43
2018-08-25T14:58:09.832Z,5.43
2018-08-25T15:00:38.685Z,5.20
2018-08-25T15:03:07.547Z,4.83
2018-08-25T15:05:36.109Z,4.80
2018-08-25T15:08:04.664Z,5.40
2018-08-25T15:10:33.149Z,5.40
2018-08-25T15:13:01.626Z,5.50
2018-08-25T15:15:30.103Z,5.63
2018-08-25T15:17:59.219Z,5.20
2018-08-25T15:20:28.035Z,5.67
2018-08-25T15:22:56.739Z,5.30
2018-08-25T15:25:25.698Z,5.70
2018-08-25T15:27:54.183Z,6.03
2018-08-25T15:30:22.635Z,5.90
2018-08-25T15:32:51.108Z,6.43
2018-08-25T15:35:19.592Z,6.03
2018-08-25T15:37:48.047Z,6.67
2018-08-25T15:40:16.526Z,6.20
2018-08-25T15:42:44.997Z,6.70
2018-08-25T15:45:13.464Z,6.40
2018-08-25T15:47:41.919Z,6.70
2018-08-25T15:50:10.476Z,6.07
2018-08-25T15:52:38.987Z,5.40
2018-08-25T15:55:08.229Z,5.50
2018-08-25T15:57:36.645Z,6.00
2018-08-25T16:00:05.438Z,5.80
2018-08-25T16:02:33.971Z,6.83
2018-08-25T16:05:02.501Z,6.20
2018-08-25T16:07:31.054Z,6.17
2018-08-25T16:09:59.600Z,7.17
2018-08-25T16:12:28.144Z,5.40
2018-08-25T16:14:56.519Z,5.77
2018-08-25T16:17:24.983Z,5.40
2018-08-25T16:19:53.727Z,6.50
2018-08-25T16:22:22.141Z,4.80
2018-08-25T16:24:50.615Z,4.97
2018-08-25T16:27:19.095Z,5.23
2018-08-25T16:29:47.572Z,5.13
2018-08-25T16:32:16.034Z,5.13
2018-08-25T16:34:44.490Z,4.70
2018-08-25T16:37:13.290Z,4.27
2018-08-25T16:39:41.775Z,4.70
2018-08-25T16:42:10.556Z,4.77
2018-08-25T16:44:39.091Z,4.30
2018-08-25T16:47:07.591Z,4.00
2018-08-25T16:49:36.056Z,4.10
2018-08-25T16:52:04.587Z,4.80
2018-08-25T16:54:33.159Z,3.87
2018-08-25T16:57:01.623Z,4.00
2018-08-25T16:59:30.089Z,4.63
2018-08-25T17:01:58.594Z,5.00
2018-08-25T17:04:27.318Z,4.07
2018-08-25T17:06:55.795Z,4.00
2018-08-25T17:09:24.264Z,4.33
2018-08-25T17:11:52.835Z,5.67
2018-08-25T17:14:21.350Z,4.97
2018-08-25T17:16:49.811Z,5.00
2018-08-25T17:19:18.288Z,4.57
2018-08-25T17:21:46.765Z,4.37
2018-08-25T17:24:15.227Z,4.70
2018-08-25T17:26:43.786Z,5.07
2018-08-25T17:29:12.324Z,5.10
2018-08-25T17:31:41.186Z,5.50
2018-08-25T17:34:09.690Z,5.10
2018-08-25T17:36:38.147Z,4.50
2018-08-25T17:39:09.288Z,4.67
2018-08-25T17:41:37.989Z,4.67
2018-08-25T17:44:06.696Z,4.30
2018-08-25T17:46:35.188Z,4.43
2018-08-25T17:49:03.762Z,4.90
2018-08-25T17:51:32.226Z,4.53
2018-08-25T17:54:00.717Z,4.13
2018-08-25T17:56:29.234Z,4.40
2018-08-25T17:58:57.744Z,3.90
2018-08-25T18:01:26.202Z,4.03
2018-08-25T18:03:54.727Z,4.60
2018-08-25T18:06:23.143Z,3.33
2018-08-25T18:08:51.611Z,4.60
2018-08-25T18:11:20.070Z,4.50
2018-08-25T18:13:48.527Z,4.20
2018-08-25T18:16:16.995Z,3.70
2018-08-25T18:18:45.546Z,3.73
2018-08-25T18:21:14.492Z,3.70
2018-08-25T18:23:43.400Z,4.27
2018-08-25T18:26:11.970Z,4.03
2018-08-25T18:28:40.423Z,3.47
2018-08-25T18:31:08.918Z,3.67
2018-08-25T18:33:37.404Z,4.50
2018-08-25T18:36:05.926Z,4.50
2018-08-25T18:38:34.444Z,3.80
2018-08-25T18:41:02.910Z,4.23
2018-08-25T18:43:31.427Z,3.33
2018-08-25T18:45:59.908Z,3.47
2018-08-25T18:48:28.404Z,3.57
2018-08-25T18:50:56.830Z,3.60
2018-08-25T18:53:25.317Z,3.60
2018-08-25T18:55:53.780Z,4.20
2018-08-25T18:58:22.247Z,3.80
2018-08-25T19:00:50.810Z,3.37
2018-08-25T19:03:19.434Z,3.93
2018-08-25T19:05:48.779Z,3.63
2018-08-25T19:08:19.285Z,3.07
2018-08-25T19:10:47.777Z,3.80
2018-08-25T19:13:16.242Z,3.60
2018-08-25T19:15:45.387Z,3.73
2018-08-25T19:18:13.854Z,3.67
2018-08-25T19:20:43.758Z,2.90
2018-08-25T19:23:12.697Z,4.30
2018-08-25T19:25:41.834Z,3.27
2018-08-25T19:28:10.403Z,2.57
2018-08-25T19:30:39.110Z,3.50
2018-08-25T19:33:08.290Z,2.70
2018-08-25T19:35:36.955Z,2.90
2018-08-25T19:38:06.182Z,3.47
2018-08-25T19:40:34.663Z,3.13
2018-08-25T19:43:05.072Z,3.90
2018-08-25T19:45:34.356Z,3.03
2018-08-25T19:48:02.891Z,3.00
2018-08-25T19:50:31.872Z,3.27
2018-08-25T19:53:01.463Z,3.50
2018-08-25T19:55:29.958Z,3.07
2018-08-25T19:57:58.771Z,3.20
2018-08-25T20:00:27.555Z,2.60
2018-08-25T20:02:58.201Z,2.83
2018-08-25T20:05:27.000Z,2.80
2018-08-25T20:07:55.535Z,2.60
2018-08-25T20:10:24.062Z,3.23
2018-08-25T20:12:52.550Z,2.93
2018-08-25T20:15:21.012Z,2.80
2018-08-25T20:17:49.490Z,2.53
2018-08-25T20:20:17.947Z,2.50
2018-08-25T20:22:46.412Z,2.33
2018-08-25T20:25:14.879Z,2.63
2018-08-25T20:27:43.331Z,2.80
2018-08-25T20:30:11.871Z,2.83
2018-08-25T20:32:40.303Z,2.77
2018-08-25T20:35:08.870Z,3.13
2018-08-25T20:37:37.356Z,3.23
2018-08-25T20:40:05.878Z,2.60
2018-08-25T20:42:34.363Z,2.77
2018-08-25T20:45:02.856Z,2.80
2018-08-25T20:47:31.350Z,3.00
2018-08-25T20:49:59.801Z,2.37
2018-08-25T20:52:28.266Z,2.10
2018-08-25T20:54:56.996Z,2.30
2018-08-25T20:57:25.467Z,2.30
2018-08-25T20:59:53.935Z,2.67
2018-08-25T21:02:22.398Z,3.40
2018-08-25T21:04:50.882Z,2.30
2018-08-25T21:07:19.359Z,2.33
2018-08-25T21:09:47.820Z,1.83
2018-08-25T21:12:16.284Z,1.97
2018-08-25T21:14:44.743Z,2.00
2018-08-25T21:17:13.194Z,2.00
2018-08-25T21:19:41.659Z,2.00
2018-08-25T21:22:10.270Z,1.90
2018-08-25T21:24:38.726Z,1.97
2018-08-25T21:27:07.218Z,1.37
2018-08-25T21:29:35.714Z,1.70
2018-08-25T21:32:04.214Z,1.60
2018-08-25T21:34:32.681Z,2.13
2018-08-25T21:37:01.151Z,1.77
2018-08-25T21:39:29.628Z,1.90
2018-08-25T21:41:58.102Z,1.70
2018-08-25T21:44:26.556Z,1.80
2018-08-25T21:46:55.022Z,1.53
2018-08-25T21:49:23.475Z,1.83
2018-08-25T21:51:51.939Z,1.37
2018-08-25T21:54:20.396Z,1.53
2018-08-25T21:56:48.854Z,1.43
2018-08-25T21:59:17.334Z,1.63
2018-08-25T22:01:51.034Z,1.67
2018-08-25T22:04:19.539Z,1.40
2018-08-25T22:06:48.043Z,1.60
2018-08-25T22:09:16.674Z,1.30
2018-08-25T22:11:45.717Z,1.40
2018-08-25T22:14:14.706Z,1.90
2018-08-25T22:16:43.191Z,1.13
2018-08-25T22:19:11.929Z,1.50
2018-08-25T22:21:40.380Z,1.63
2018-08-25T22:24:08.924Z,1.47
2018-08-25T22:26:37.387Z,1.40
2018-08-25T22:29:05.907Z,1.43
2018-08-25T22:31:34.378Z,1.30
